< < Back
Terminal Aerodrome Forecast


Current Version              Previous Versions:   1  2  3  4  5  6  7  8  9  

Terminal Aerodrome Forecast

736
FTUS44 KBMX 162300
TAFANB
TAF
KANB 162324Z 1700/1724 08005KT P6SM SKC
     FM171200 09010KT P6SM SCT050=

Latest METAR

926
SAUS70 KWBC 171200 RRB
MTRANB
METAR KANB 171153Z AUTO 06009KT 10SM CLR 07/02 A3034 RMK AO2 SLP278
T00670022 10094 20061 50010


USA.gov is the U.S. government's official web portal to all federal, state and local government web resources and services.